sensor_id;sensor_type;location;lat;lon;timestamp;temperature;humidity
12408;DHT22;6268;48.188;17.134;2023-08-06T00:00:07;17.50;99.90
12408;DHT22;6268;48.188;17.134;2023-08-06T00:03:28;17.50;99.90
12408;DHT22;6268;48.188;17.134;2023-08-06T00:06:49;17.40;99.90
12408;DHT22;6268;48.188;17.134;2023-08-06T00:10:10;17.40;99.90
12408;DHT22;6268;48.188;17.134;2023-08-06T00:13:33;17.40;99.90
12408;DHT22;6268;48.188;17.134;2023-08-06T00:16:54;17.50;99.90
12408;DHT22;6268;48.188;17.134;2023-08-06T00:20:16;17.50;99.90
12408;DHT22;6268;48.188;17.134;2023-08-06T00:23:39;17.40;99.90
12408;DHT22;6268;48.188;17.134;2023-08-06T00:27:00;17.40;99.90
12408;DHT22;6268;48.188;17.134;2023-08-06T00:30:26;17.40;99.90
12408;DHT22;6268;48.188;17.134;2023-08-06T00:33:47;17.40;99.90
12408;DHT22;6268;48.188;17.134;2023-08-06T00:37:09;17.30;99.90
12408;DHT22;6268;48.188;17.134;2023-08-06T00:40:30;17.30;99.90
12408;DHT22;6268;48.188;17.134;2023-08-06T00:43:51;17.20;99.90
12408;DHT22;6268;48.188;17.134;2023-08-06T00:47:14;17.20;99.90
12408;DHT22;6268;48.188;17.134;2023-08-06T00:50:37;17.20;99.90
12408;DHT22;6268;48.188;17.134;2023-08-06T00:53:58;17.20;99.90
12408;DHT22;6268;48.188;17.134;2023-08-06T00:57:21;17.20;99.90
12408;DHT22;6268;48.188;17.134;2023-08-06T01:00:45;17.10;99.90
12408;DHT22;6268;48.188;17.134;2023-08-06T01:04:08;17.10;99.90
12408;DHT22;6268;48.188;17.134;2023-08-06T01:07:38;17.10;99.90
12408;DHT22;6268;48.188;17.134;2023-08-06T01:11:19;17.10;99.90
12408;DHT22;6268;48.188;17.134;2023-08-06T01:14:53;17.10;99.90
12408;DHT22;6268;48.188;17.134;2023-08-06T01:18:23;17.20;99.90
12408;DHT22;6268;48.188;17.134;2023-08-06T01:21:47;17.10;99.90
12408;DHT22;6268;48.188;17.134;2023-08-06T01:25:09;17.10;99.90
12408;DHT22;6268;48.188;17.134;2023-08-06T01:28:38;17.00;99.90
12408;DHT22;6268;48.188;17.134;2023-08-06T01:32:04;17.00;99.90
12408;DHT22;6268;48.188;17.134;2023-08-06T01:35:27;17.00;99.90
12408;DHT22;6268;48.188;17.134;2023-08-06T01:38:53;17.00;99.90
12408;DHT22;6268;48.188;17.134;2023-08-06T01:42:14;17.00;99.90
12408;DHT22;6268;48.188;17.134;2023-08-06T01:45:35;17.00;99.90
12408;DHT22;6268;48.188;17.134;2023-08-06T01:48:56;16.90;99.90
12408;DHT22;6268;48.188;17.134;2023-08-06T01:52:18;16.90;99.90
12408;DHT22;6268;48.188;17.134;2023-08-06T01:55:40;16.90;99.90
12408;DHT22;6268;48.188;17.134;2023-08-06T01:59:02;16.90;99.90
12408;DHT22;6268;48.188;17.134;2023-08-06T02:02:23;16.90;99.90
12408;DHT22;6268;48.188;17.134;2023-08-06T02:05:45;16.90;99.90
12408;DHT22;6268;48.188;17.134;2023-08-06T02:09:06;16.90;99.90
12408;DHT22;6268;48.188;17.134;2023-08-06T02:12:29;16.80;99.90
12408;DHT22;6268;48.188;17.134;2023-08-06T02:15:50;16.80;99.90
12408;DHT22;6268;48.188;17.134;2023-08-06T02:19:11;16.80;99.90
12408;DHT22;6268;48.188;17.134;2023-08-06T02:22:33;16.80;99.90
12408;DHT22;6268;48.188;17.134;2023-08-06T02:25:59;16.80;99.90
12408;DHT22;6268;48.188;17.134;2023-08-06T02:29:24;16.80;99.90
12408;DHT22;6268;48.188;17.134;2023-08-06T02:32:45;16.70;99.90
12408;DHT22;6268;48.188;17.134;2023-08-06T02:36:07;16.70;99.90
12408;DHT22;6268;48.188;17.134;2023-08-06T02:39:28;16.70;99.90
12408;DHT22;6268;48.188;17.134;2023-08-06T02:42:49;16.60;99.90
12408;DHT22;6268;48.188;17.134;2023-08-06T02:46:12;16.60;99.90
12408;DHT22;6268;48.188;17.134;2023-08-06T02:49:33;16.60;99.90
12408;DHT22;6268;48.188;17.134;2023-08-06T02:52:55;16.60;99.90
12408;DHT22;6268;48.188;17.134;2023-08-06T02:56:16;16.50;99.90
12408;DHT22;6268;48.188;17.134;2023-08-06T02:59:37;16.50;99.90
12408;DHT22;6268;48.188;17.134;2023-08-06T03:03:00;16.50;99.90
12408;DHT22;6268;48.188;17.134;2023-08-06T03:06:21;16.50;99.90
12408;DHT22;6268;48.188;17.134;2023-08-06T03:09:43;16.50;99.90
12408;DHT22;6268;48.188;17.134;2023-08-06T03:13:04;16.50;99.90
12408;DHT22;6268;48.188;17.134;2023-08-06T03:16:25;16.50;99.90
12408;DHT22;6268;48.188;17.134;2023-08-06T03:19:48;16.50;99.90
12408;DHT22;6268;48.188;17.134;2023-08-06T03:23:09;16.50;99.90
12408;DHT22;6268;48.188;17.134;2023-08-06T03:26:30;16.50;99.90
12408;DHT22;6268;48.188;17.134;2023-08-06T03:29:52;16.50;99.90
12408;DHT22;6268;48.188;17.134;2023-08-06T03:33:13;16.50;99.90
12408;DHT22;6268;48.188;17.134;2023-08-06T03:36:36;16.50;99.90
12408;DHT22;6268;48.188;17.134;2023-08-06T03:39:57;16.40;99.90
12408;DHT22;6268;48.188;17.134;2023-08-06T03:43:18;16.30;99.90
12408;DHT22;6268;48.188;17.134;2023-08-06T03:46:39;16.40;99.90
12408;DHT22;6268;48.188;17.134;2023-08-06T03:50:01;16.30;99.90
12408;DHT22;6268;48.188;17.134;2023-08-06T03:53:23;16.30;99.90
12408;DHT22;6268;48.188;17.134;2023-08-06T03:56:45;16.40;99.90
12408;DHT22;6268;48.188;17.134;2023-08-06T04:00:07;16.30;99.90
12408;DHT22;6268;48.188;17.134;2023-08-06T04:03:30;16.30;99.90
12408;DHT22;6268;48.188;17.134;2023-08-06T04:06:51;16.30;99.90
12408;DHT22;6268;48.188;17.134;2023-08-06T04:10:14;16.30;99.90
12408;DHT22;6268;48.188;17.134;2023-08-06T04:13:35;16.30;99.90
12408;DHT22;6268;48.188;17.134;2023-08-06T04:16:56;16.30;99.90
12408;DHT22;6268;48.188;17.134;2023-08-06T04:20:17;16.30;99.90
12408;DHT22;6268;48.188;17.134;2023-08-06T04:23:39;16.20;99.90
12408;DHT22;6268;48.188;17.134;2023-08-06T04:27:01;16.30;99.90
12408;DHT22;6268;48.188;17.134;2023-08-06T04:30:23;16.30;99.90
12408;DHT22;6268;48.188;17.134;2023-08-06T04:33:44;16.20;99.90
12408;DHT22;6268;48.188;17.134;2023-08-06T04:37:05;16.20;99.90
12408;DHT22;6268;48.188;17.134;2023-08-06T04:40:27;16.20;99.90
12408;DHT22;6268;48.188;17.134;2023-08-06T04:43:50;16.20;99.90
12408;DHT22;6268;48.188;17.134;2023-08-06T04:47:12;16.20;99.90
12408;DHT22;6268;48.188;17.134;2023-08-06T04:50:33;16.20;99.90
12408;DHT22;6268;48.188;17.134;2023-08-06T04:53:54;16.20;99.90
12408;DHT22;6268;48.188;17.134;2023-08-06T04:57:15;16.20;99.90
12408;DHT22;6268;48.188;17.134;2023-08-06T05:00:38;16.20;99.90
12408;DHT22;6268;48.188;17.134;2023-08-06T05:04:00;16.30;99.90
12408;DHT22;6268;48.188;17.134;2023-08-06T05:07:21;16.30;99.90
12408;DHT22;6268;48.188;17.134;2023-08-06T05:10:45;16.30;99.90
12408;DHT22;6268;48.188;17.134;2023-08-06T05:14:06;16.30;99.90
12408;DHT22;6268;48.188;17.134;2023-08-06T05:17:28;16.30;99.90
12408;DHT22;6268;48.188;17.134;2023-08-06T05:20:50;16.30;99.90
12408;DHT22;6268;48.188;17.134;2023-08-06T05:24:11;16.30;99.90
12408;DHT22;6268;48.188;17.134;2023-08-06T05:27:33;16.30;99.90
12408;DHT22;6268;48.188;17.134;2023-08-06T05:30:54;16.30;99.90
12408;DHT22;6268;48.188;17.134;2023-08-06T05:34:17;16.30;99.90
12408;DHT22;6268;48.188;17.134;2023-08-06T05:37:38;16.20;99.90
12408;DHT22;6268;48.188;17.134;2023-08-06T05:41:00;16.20;99.90
12408;DHT22;6268;48.188;17.134;2023-08-06T05:44:23;16.20;99.90
12408;DHT22;6268;48.188;17.134;2023-08-06T05:47:45;16.20;99.90
12408;DHT22;6268;48.188;17.134;2023-08-06T05:51:07;16.30;99.90
12408;DHT22;6268;48.188;17.134;2023-08-06T05:54:30;16.30;99.90
12408;DHT22;6268;48.188;17.134;2023-08-06T05:57:51;16.30;99.90
12408;DHT22;6268;48.188;17.134;2023-08-06T06:01:13;16.30;99.90
12408;DHT22;6268;48.188;17.134;2023-08-06T06:04:34;16.30;99.90
12408;DHT22;6268;48.188;17.134;2023-08-06T06:07:58;16.40;99.90
12408;DHT22;6268;48.188;17.134;2023-08-06T06:11:19;16.40;99.90
12408;DHT22;6268;48.188;17.134;2023-08-06T06:14:41;16.40;99.90
12408;DHT22;6268;48.188;17.134;2023-08-06T06:18:02;16.40;99.90
12408;DHT22;6268;48.188;17.134;2023-08-06T06:21:24;16.40;99.90
12408;DHT22;6268;48.188;17.134;2023-08-06T06:24:47;16.40;99.90
12408;DHT22;6268;48.188;17.134;2023-08-06T06:28:10;16.40;99.90
12408;DHT22;6268;48.188;17.134;2023-08-06T06:31:34;16.40;99.90
12408;DHT22;6268;48.188;17.134;2023-08-06T06:34:55;16.40;99.90
12408;DHT22;6268;48.188;17.134;2023-08-06T06:38:17;16.50;99.90
12408;DHT22;6268;48.188;17.134;2023-08-06T06:41:39;16.50;99.90
12408;DHT22;6268;48.188;17.134;2023-08-06T06:45:01;16.50;99.90
12408;DHT22;6268;48.188;17.134;2023-08-06T06:48:25;16.60;99.90
12408;DHT22;6268;48.188;17.134;2023-08-06T06:51:46;16.90;99.90
12408;DHT22;6268;48.188;17.134;2023-08-06T06:55:08;17.00;99.90
12408;DHT22;6268;48.188;17.134;2023-08-06T06:58:31;16.90;99.90
12408;DHT22;6268;48.188;17.134;2023-08-06T07:01:53;16.80;99.90
12408;DHT22;6268;48.188;17.134;2023-08-06T07:05:14;16.80;99.90
12408;DHT22;6268;48.188;17.134;2023-08-06T07:08:35;16.80;99.90
12408;DHT22;6268;48.188;17.134;2023-08-06T07:11:57;16.80;99.90
12408;DHT22;6268;48.188;17.134;2023-08-06T07:15:19;16.80;99.90
12408;DHT22;6268;48.188;17.134;2023-08-06T07:18:41;16.80;99.90
12408;DHT22;6268;48.188;17.134;2023-08-06T07:22:02;16.80;99.90
12408;DHT22;6268;48.188;17.134;2023-08-06T07:25:23;16.80;99.90
12408;DHT22;6268;48.188;17.134;2023-08-06T07:28:45;16.90;99.90
12408;DHT22;6268;48.188;17.134;2023-08-06T07:32:08;16.80;99.90
12408;DHT22;6268;48.188;17.134;2023-08-06T07:35:29;16.90;99.90
12408;DHT22;6268;48.188;17.134;2023-08-06T07:38:50;16.90;99.90
12408;DHT22;6268;48.188;17.134;2023-08-06T07:42:11;17.00;99.90
12408;DHT22;6268;48.188;17.134;2023-08-06T07:45:34;17.10;99.90
12408;DHT22;6268;48.188;17.134;2023-08-06T07:48:56;17.10;99.90
12408;DHT22;6268;48.188;17.134;2023-08-06T07:52:18;17.10;99.90
12408;DHT22;6268;48.188;17.134;2023-08-06T07:55:39;17.10;99.90
12408;DHT22;6268;48.188;17.134;2023-08-06T07:59:00;17.20;99.90
12408;DHT22;6268;48.188;17.134;2023-08-06T08:02:21;17.20;99.90
12408;DHT22;6268;48.188;17.134;2023-08-06T08:05:45;17.20;99.90
12408;DHT22;6268;48.188;17.134;2023-08-06T08:09:06;17.20;99.90
12408;DHT22;6268;48.188;17.134;2023-08-06T08:12:27;17.10;99.90
12408;DHT22;6268;48.188;17.134;2023-08-06T08:15:57;17.10;99.90
12408;DHT22;6268;48.188;17.134;2023-08-06T08:19:18;17.10;99.90
12408;DHT22;6268;48.188;17.134;2023-08-06T08:22:41;17.10;99.90
12408;DHT22;6268;48.188;17.134;2023-08-06T08:26:02;17.20;99.90
12408;DHT22;6268;48.188;17.134;2023-08-06T08:29:23;17.20;99.90
12408;DHT22;6268;48.188;17.134;2023-08-06T08:32:45;17.20;99.90
12408;DHT22;6268;48.188;17.134;2023-08-06T08:36:06;17.30;99.90
12408;DHT22;6268;48.188;17.134;2023-08-06T08:39:29;17.40;99.90
12408;DHT22;6268;48.188;17.134;2023-08-06T08:42:51;17.40;99.90
12408;DHT22;6268;48.188;17.134;2023-08-06T08:46:14;17.40;99.90
12408;DHT22;6268;48.188;17.134;2023-08-06T08:49:37;17.40;99.90
12408;DHT22;6268;48.188;17.134;2023-08-06T08:52:59;17.50;99.90
12408;DHT22;6268;48.188;17.134;2023-08-06T08:56:24;17.50;99.90
12408;DHT22;6268;48.188;17.134;2023-08-06T08:59:45;17.50;99.90
12408;DHT22;6268;48.188;17.134;2023-08-06T09:03:07;17.50;99.90
12408;DHT22;6268;48.188;17.134;2023-08-06T09:06:30;17.60;99.90
12408;DHT22;6268;48.188;17.134;2023-08-06T09:09:53;17.60;99.90
12408;DHT22;6268;48.188;17.134;2023-08-06T09:13:18;17.60;99.90
12408;DHT22;6268;48.188;17.134;2023-08-06T09:16:40;17.60;99.90
12408;DHT22;6268;48.188;17.134;2023-08-06T09:20:10;17.70;99.90
12408;DHT22;6268;48.188;17.134;2023-08-06T09:23:31;17.70;99.90
12408;DHT22;6268;48.188;17.134;2023-08-06T09:26:55;17.80;99.90
12408;DHT22;6268;48.188;17.134;2023-08-06T09:30:29;17.80;99.90
12408;DHT22;6268;48.188;17.134;2023-08-06T09:33:50;17.80;99.90
12408;DHT22;6268;48.188;17.134;2023-08-06T09:37:12;18.00;99.90
12408;DHT22;6268;48.188;17.134;2023-08-06T09:40:35;18.10;99.90
12408;DHT22;6268;48.188;17.134;2023-08-06T09:43:56;18.10;99.90
12408;DHT22;6268;48.188;17.134;2023-08-06T09:47:19;18.20;99.90
12408;DHT22;6268;48.188;17.134;2023-08-06T09:50:41;18.20;99.90
12408;DHT22;6268;48.188;17.134;2023-08-06T09:54:03;18.30;99.90
12408;DHT22;6268;48.188;17.134;2023-08-06T09:57:26;18.30;99.90
12408;DHT22;6268;48.188;17.134;2023-08-06T10:00:49;18.20;99.90
12408;DHT22;6268;48.188;17.134;2023-08-06T10:04:14;18.30;99.90
12408;DHT22;6268;48.188;17.134;2023-08-06T10:07:36;18.20;99.90
12408;DHT22;6268;48.188;17.134;2023-08-06T10:10:58;18.30;99.90
12408;DHT22;6268;48.188;17.134;2023-08-06T10:14:25;18.30;99.90
12408;DHT22;6268;48.188;17.134;2023-08-06T10:17:51;18.30;99.90
12408;DHT22;6268;48.188;17.134;2023-08-06T10:21:17;18.30;99.90
12408;DHT22;6268;48.188;17.134;2023-08-06T10:24:50;18.20;99.90
12408;DHT22;6268;48.188;17.134;2023-08-06T10:28:12;18.30;99.90
12408;DHT22;6268;48.188;17.134;2023-08-06T10:31:54;18.40;99.90
12408;DHT22;6268;48.188;17.134;2023-08-06T10:35:28;18.30;99.90
12408;DHT22;6268;48.188;17.134;2023-08-06T10:38:58;18.40;99.90
12408;DHT22;6268;48.188;17.134;2023-08-06T10:42:26;18.40;99.90
12408;DHT22;6268;48.188;17.134;2023-08-06T10:45:53;18.30;99.90
12408;DHT22;6268;48.188;17.134;2023-08-06T10:49:17;18.30;99.90
12408;DHT22;6268;48.188;17.134;2023-08-06T10:52:42;18.20;99.90
12408;DHT22;6268;48.188;17.134;2023-08-06T10:56:12;18.10;99.90
12408;DHT22;6268;48.188;17.134;2023-08-06T10:59:37;18.20;99.90
12408;DHT22;6268;48.188;17.134;2023-08-06T11:02:58;18.20;99.90
12408;DHT22;6268;48.188;17.134;2023-08-06T11:06:21;18.20;99.90
12408;DHT22;6268;48.188;17.134;2023-08-06T11:09:50;18.20;99.90
12408;DHT22;6268;48.188;17.134;2023-08-06T11:13:29;18.20;99.90
12408;DHT22;6268;48.188;17.134;2023-08-06T11:16:50;18.20;99.90
12408;DHT22;6268;48.188;17.134;2023-08-06T11:20:12;18.20;99.90
12408;DHT22;6268;48.188;17.134;2023-08-06T11:23:35;18.20;99.90
12408;DHT22;6268;48.188;17.134;2023-08-06T11:26:57;18.20;99.90
12408;DHT22;6268;48.188;17.134;2023-08-06T11:30:19;18.40;99.90
12408;DHT22;6268;48.188;17.134;2023-08-06T11:33:46;18.50;99.90
12408;DHT22;6268;48.188;17.134;2023-08-06T11:37:08;18.60;99.90
12408;DHT22;6268;48.188;17.134;2023-08-06T11:40:29;18.50;99.90
12408;DHT22;6268;48.188;17.134;2023-08-06T11:43:52;18.50;99.90
12408;DHT22;6268;48.188;17.134;2023-08-06T11:47:15;18.50;99.90
12408;DHT22;6268;48.188;17.134;2023-08-06T11:50:37;18.60;99.90
12408;DHT22;6268;48.188;17.134;2023-08-06T11:54:00;18.50;99.90
12408;DHT22;6268;48.188;17.134;2023-08-06T11:57:30;18.60;99.90
12408;DHT22;6268;48.188;17.134;2023-08-06T12:00:53;18.50;99.90
12408;DHT22;6268;48.188;17.134;2023-08-06T12:04:14;18.40;99.90
12408;DHT22;6268;48.188;17.134;2023-08-06T12:07:39;18.30;99.90
12408;DHT22;6268;48.188;17.134;2023-08-06T12:11:01;18.40;99.90
12408;DHT22;6268;48.188;17.134;2023-08-06T12:14:23;18.30;99.90
12408;DHT22;6268;48.188;17.134;2023-08-06T12:17:46;18.30;99.90
12408;DHT22;6268;48.188;17.134;2023-08-06T12:21:07;18.30;99.90
12408;DHT22;6268;48.188;17.134;2023-08-06T12:24:29;18.30;99.90
12408;DHT22;6268;48.188;17.134;2023-08-06T12:27:51;18.30;99.90
12408;DHT22;6268;48.188;17.134;2023-08-06T12:31:12;18.30;99.90
12408;DHT22;6268;48.188;17.134;2023-08-06T12:34:35;18.20;99.90
12408;DHT22;6268;48.188;17.134;2023-08-06T12:37:56;18.20;99.90
12408;DHT22;6268;48.188;17.134;2023-08-06T12:41:18;18.20;99.90
12408;DHT22;6268;48.188;17.134;2023-08-06T12:44:39;18.30;99.90
12408;DHT22;6268;48.188;17.134;2023-08-06T12:48:00;18.30;99.90
12408;DHT22;6268;48.188;17.134;2023-08-06T12:51:23;18.20;99.90
12408;DHT22;6268;48.188;17.134;2023-08-06T12:54:46;18.30;99.90
12408;DHT22;6268;48.188;17.134;2023-08-06T12:58:08;18.30;99.90
12408;DHT22;6268;48.188;17.134;2023-08-06T13:01:29;18.30;99.90
12408;DHT22;6268;48.188;17.134;2023-08-06T13:04:51;18.40;99.90
12408;DHT22;6268;48.188;17.134;2023-08-06T13:08:13;18.30;99.90
12408;DHT22;6268;48.188;17.134;2023-08-06T13:11:35;18.20;99.90
12408;DHT22;6268;48.188;17.134;2023-08-06T13:14:57;18.30;99.90
12408;DHT22;6268;48.188;17.134;2023-08-06T13:18:18;18.10;99.90
12408;DHT22;6268;48.188;17.134;2023-08-06T13:21:59;18.10;99.90
12408;DHT22;6268;48.188;17.134;2023-08-06T13:25:24;18.20;99.90
12408;DHT22;6268;48.188;17.134;2023-08-06T13:28:45;18.20;99.90
12408;DHT22;6268;48.188;17.134;2023-08-06T13:32:07;18.20;99.90
12408;DHT22;6268;48.188;17.134;2023-08-06T13:35:28;18.20;99.90
12408;DHT22;6268;48.188;17.134;2023-08-06T13:38:50;18.20;99.90
12408;DHT22;6268;48.188;17.134;2023-08-06T13:42:12;18.10;99.90
12408;DHT22;6268;48.188;17.134;2023-08-06T13:45:34;18.00;99.90
12408;DHT22;6268;48.188;17.134;2023-08-06T13:48:55;18.10;99.90
12408;DHT22;6268;48.188;17.134;2023-08-06T13:52:17;18.00;99.90
12408;DHT22;6268;48.188;17.134;2023-08-06T13:55:38;18.10;99.90
12408;DHT22;6268;48.188;17.134;2023-08-06T13:59:01;18.00;99.90
12408;DHT22;6268;48.188;17.134;2023-08-06T14:02:23;18.00;99.90
12408;DHT22;6268;48.188;17.134;2023-08-06T14:05:44;18.00;99.90
12408;DHT22;6268;48.188;17.134;2023-08-06T14:09:05;18.00;99.90
12408;DHT22;6268;48.188;17.134;2023-08-06T14:12:26;18.00;99.90
12408;DHT22;6268;48.188;17.134;2023-08-06T14:15:50;18.10;99.90
12408;DHT22;6268;48.188;17.134;2023-08-06T14:19:12;18.00;99.90
12408;DHT22;6268;48.188;17.134;2023-08-06T14:22:36;18.00;99.90
12408;DHT22;6268;48.188;17.134;2023-08-06T14:25:57;18.10;99.90
12408;DHT22;6268;48.188;17.134;2023-08-06T14:29:19;18.20;99.90
12408;DHT22;6268;48.188;17.134;2023-08-06T14:32:42;18.30;99.90
12408;DHT22;6268;48.188;17.134;2023-08-06T14:36:04;18.20;99.90
12408;DHT22;6268;48.188;17.134;2023-08-06T14:39:26;18.30;99.90
12408;DHT22;6268;48.188;17.134;2023-08-06T14:42:47;18.50;99.90
12408;DHT22;6268;48.188;17.134;2023-08-06T14:46:09;18.50;99.90
12408;DHT22;6268;48.188;17.134;2023-08-06T14:49:31;18.60;99.90
12408;DHT22;6268;48.188;17.134;2023-08-06T14:52:53;18.60;99.90
12408;DHT22;6268;48.188;17.134;2023-08-06T14:56:14;18.60;99.90
12408;DHT22;6268;48.188;17.134;2023-08-06T14:59:36;18.60;99.90
12408;DHT22;6268;48.188;17.134;2023-08-06T15:02:58;18.70;99.90
12408;DHT22;6268;48.188;17.134;2023-08-06T15:06:21;18.80;99.90
12408;DHT22;6268;48.188;17.134;2023-08-06T15:09:42;19.00;99.90
12408;DHT22;6268;48.188;17.134;2023-08-06T15:13:04;18.90;99.90
12408;DHT22;6268;48.188;17.134;2023-08-06T15:16:27;19.00;99.90
12408;DHT22;6268;48.188;17.134;2023-08-06T15:19:49;19.20;99.90
12408;DHT22;6268;48.188;17.134;2023-08-06T15:23:11;19.20;99.90
12408;DHT22;6268;48.188;17.134;2023-08-06T15:26:33;19.20;99.90
12408;DHT22;6268;48.188;17.134;2023-08-06T15:29:54;19.20;99.90
12408;DHT22;6268;48.188;17.134;2023-08-06T15:33:18;19.20;99.90
12408;DHT22;6268;48.188;17.134;2023-08-06T15:36:40;19.20;99.90
12408;DHT22;6268;48.188;17.134;2023-08-06T15:40:02;19.30;99.90
12408;DHT22;6268;48.188;17.134;2023-08-06T15:43:24;19.40;99.90
12408;DHT22;6268;48.188;17.134;2023-08-06T15:46:46;19.50;99.90
12408;DHT22;6268;48.188;17.134;2023-08-06T15:50:09;19.50;99.90
12408;DHT22;6268;48.188;17.134;2023-08-06T15:53:31;19.50;99.90
12408;DHT22;6268;48.188;17.134;2023-08-06T15:56:54;19.60;99.90
12408;DHT22;6268;48.188;17.134;2023-08-06T16:00:15;19.50;99.90
12408;DHT22;6268;48.188;17.134;2023-08-06T16:03:37;19.60;99.90
12408;DHT22;6268;48.188;17.134;2023-08-06T16:06:59;19.50;99.90
12408;DHT22;6268;48.188;17.134;2023-08-06T16:10:20;19.50;99.90
12408;DHT22;6268;48.188;17.134;2023-08-06T16:13:43;19.50;99.90
12408;DHT22;6268;48.188;17.134;2023-08-06T16:17:06;19.30;99.90
12408;DHT22;6268;48.188;17.134;2023-08-06T16:20:27;19.30;99.90
12408;DHT22;6268;48.188;17.134;2023-08-06T16:23:49;19.20;99.90
12408;DHT22;6268;48.188;17.134;2023-08-06T16:27:10;19.10;99.90
12408;DHT22;6268;48.188;17.134;2023-08-06T16:30:33;19.00;99.90
12408;DHT22;6268;48.188;17.134;2023-08-06T16:33:54;18.80;99.90
12408;DHT22;6268;48.188;17.134;2023-08-06T16:37:17;18.70;99.90
12408;DHT22;6268;48.188;17.134;2023-08-06T16:40:38;18.50;99.90
12408;DHT22;6268;48.188;17.134;2023-08-06T16:43:59;18.50;99.90
12408;DHT22;6268;48.188;17.134;2023-08-06T16:47:22;18.50;99.90
12408;DHT22;6268;48.188;17.134;2023-08-06T16:50:43;18.50;99.90
12408;DHT22;6268;48.188;17.134;2023-08-06T16:54:06;18.40;99.90
12408;DHT22;6268;48.188;17.134;2023-08-06T16:57:28;18.40;99.90
12408;DHT22;6268;48.188;17.134;2023-08-06T17:00:49;18.40;99.90
12408;DHT22;6268;48.188;17.134;2023-08-06T17:04:12;18.30;99.90
12408;DHT22;6268;48.188;17.134;2023-08-06T17:07:34;18.30;99.90
12408;DHT22;6268;48.188;17.134;2023-08-06T17:10:57;18.10;99.90
12408;DHT22;6268;48.188;17.134;2023-08-06T17:14:19;18.10;99.90
12408;DHT22;6268;48.188;17.134;2023-08-06T17:17:40;18.10;99.90
12408;DHT22;6268;48.188;17.134;2023-08-06T17:21:03;18.00;99.90
12408;DHT22;6268;48.188;17.134;2023-08-06T17:24:24;17.90;99.90
12408;DHT22;6268;48.188;17.134;2023-08-06T17:27:48;17.80;99.90
12408;DHT22;6268;48.188;17.134;2023-08-06T17:31:09;17.80;99.90
12408;DHT22;6268;48.188;17.134;2023-08-06T17:34:31;17.80;99.90
12408;DHT22;6268;48.188;17.134;2023-08-06T17:37:54;17.80;99.90
12408;DHT22;6268;48.188;17.134;2023-08-06T17:41:15;17.90;99.90
12408;DHT22;6268;48.188;17.134;2023-08-06T17:44:38;17.80;99.90
12408;DHT22;6268;48.188;17.134;2023-08-06T17:48:00;17.90;99.90
12408;DHT22;6268;48.188;17.134;2023-08-06T17:51:23;17.80;99.90
12408;DHT22;6268;48.188;17.134;2023-08-06T17:54:46;17.70;99.90
12408;DHT22;6268;48.188;17.134;2023-08-06T17:58:08;17.70;99.90
12408;DHT22;6268;48.188;17.134;2023-08-06T18:01:30;17.90;99.90
12408;DHT22;6268;48.188;17.134;2023-08-06T18:04:51;18.20;99.90
12408;DHT22;6268;48.188;17.134;2023-08-06T18:08:13;18.60;99.90
12408;DHT22;6268;48.188;17.134;2023-08-06T18:11:36;18.90;99.90
12408;DHT22;6268;48.188;17.134;2023-08-06T18:14:57;19.00;99.90
12408;DHT22;6268;48.188;17.134;2023-08-06T18:18:21;18.40;99.90
12408;DHT22;6268;48.188;17.134;2023-08-06T18:21:43;18.20;99.90
12408;DHT22;6268;48.188;17.134;2023-08-06T18:25:07;17.90;99.90
12408;DHT22;6268;48.188;17.134;2023-08-06T18:28:32;17.80;99.90
12408;DHT22;6268;48.188;17.134;2023-08-06T18:31:54;17.70;99.90
12408;DHT22;6268;48.188;17.134;2023-08-06T18:35:15;17.70;99.90
12408;DHT22;6268;48.188;17.134;2023-08-06T18:38:36;17.60;99.90
12408;DHT22;6268;48.188;17.134;2023-08-06T18:41:58;17.50;99.90
12408;DHT22;6268;48.188;17.134;2023-08-06T18:45:20;17.50;99.90
12408;DHT22;6268;48.188;17.134;2023-08-06T18:48:42;17.50;99.90
12408;DHT22;6268;48.188;17.134;2023-08-06T18:52:04;17.50;99.90
12408;DHT22;6268;48.188;17.134;2023-08-06T18:55:26;17.40;99.90
12408;DHT22;6268;48.188;17.134;2023-08-06T18:58:47;17.40;99.90
12408;DHT22;6268;48.188;17.134;2023-08-06T19:02:10;17.40;99.90
12408;DHT22;6268;48.188;17.134;2023-08-06T19:05:31;17.40;99.90
12408;DHT22;6268;48.188;17.134;2023-08-06T19:08:56;17.40;99.90
12408;DHT22;6268;48.188;17.134;2023-08-06T19:12:17;17.30;99.90
12408;DHT22;6268;48.188;17.134;2023-08-06T19:15:47;17.30;99.90
12408;DHT22;6268;48.188;17.134;2023-08-06T19:19:14;17.30;99.90
12408;DHT22;6268;48.188;17.134;2023-08-06T19:22:36;17.20;99.90
12408;DHT22;6268;48.188;17.134;2023-08-06T19:25:59;17.30;99.90
12408;DHT22;6268;48.188;17.134;2023-08-06T19:29:21;17.20;99.90
12408;DHT22;6268;48.188;17.134;2023-08-06T19:32:42;17.20;99.90
12408;DHT22;6268;48.188;17.134;2023-08-06T19:36:05;17.20;99.90
12408;DHT22;6268;48.188;17.134;2023-08-06T19:39:26;17.20;99.90
12408;DHT22;6268;48.188;17.134;2023-08-06T19:42:47;17.10;99.90
12408;DHT22;6268;48.188;17.134;2023-08-06T19:46:10;17.10;99.90
12408;DHT22;6268;48.188;17.134;2023-08-06T19:49:31;17.10;99.90
12408;DHT22;6268;48.188;17.134;2023-08-06T19:52:54;17.10;99.90
12408;DHT22;6268;48.188;17.134;2023-08-06T19:56:16;17.10;99.90
12408;DHT22;6268;48.188;17.134;2023-08-06T19:59:37;17.00;99.90
12408;DHT22;6268;48.188;17.134;2023-08-06T20:02:58;16.90;99.90
12408;DHT22;6268;48.188;17.134;2023-08-06T20:06:20;16.90;99.90
12408;DHT22;6268;48.188;17.134;2023-08-06T20:09:42;16.90;99.90
12408;DHT22;6268;48.188;17.134;2023-08-06T20:13:04;16.80;99.90
12408;DHT22;6268;48.188;17.134;2023-08-06T20:16:26;16.70;99.90
12408;DHT22;6268;48.188;17.134;2023-08-06T20:19:47;16.60;99.90
12408;DHT22;6268;48.188;17.134;2023-08-06T20:23:09;16.50;99.90
12408;DHT22;6268;48.188;17.134;2023-08-06T20:26:32;16.50;99.90
12408;DHT22;6268;48.188;17.134;2023-08-06T20:29:53;16.50;99.90
12408;DHT22;6268;48.188;17.134;2023-08-06T20:33:15;16.50;99.90
12408;DHT22;6268;48.188;17.134;2023-08-06T20:36:37;16.30;99.90
12408;DHT22;6268;48.188;17.134;2023-08-06T20:39:58;16.40;99.90
12408;DHT22;6268;48.188;17.134;2023-08-06T20:43:23;16.30;99.90
12408;DHT22;6268;48.188;17.134;2023-08-06T20:46:45;16.30;99.90
12408;DHT22;6268;48.188;17.134;2023-08-06T20:50:07;16.20;99.90
12408;DHT22;6268;48.188;17.134;2023-08-06T20:53:28;16.20;99.90
12408;DHT22;6268;48.188;17.134;2023-08-06T20:56:49;16.20;99.90
12408;DHT22;6268;48.188;17.134;2023-08-06T21:00:13;16.20;99.90
12408;DHT22;6268;48.188;17.134;2023-08-06T21:03:35;16.00;99.90
12408;DHT22;6268;48.188;17.134;2023-08-06T21:06:56;16.00;99.90
12408;DHT22;6268;48.188;17.134;2023-08-06T21:10:18;16.10;99.90
12408;DHT22;6268;48.188;17.134;2023-08-06T21:13:43;16.20;99.90
12408;DHT22;6268;48.188;17.134;2023-08-06T21:17:06;16.10;99.90